createdAt,value
2022-10-23T00:00:31.533Z,10.5
2022-10-23T00:02:31.178Z,10.7
2022-10-23T00:04:30.808Z,10.6
2022-10-23T00:06:33.886Z,10.4
2022-10-23T00:08:33.562Z,10.5
2022-10-23T00:10:33.254Z,10.4
2022-10-23T00:12:32.932Z,10.3
2022-10-23T00:14:32.643Z,10.4
2022-10-23T00:16:32.327Z,10.3
2022-10-23T00:18:32.000Z,10.4
2022-10-23T00:20:35.111Z,10.4
2022-10-23T00:22:34.794Z,10.4
2022-10-23T00:24:34.478Z,10.3
2022-10-23T00:25:36.004Z,10.4
2022-10-23T00:27:35.723Z,10.4
2022-10-23T00:29:35.390Z,10.4
2022-10-23T00:31:35.068Z,10.5
2022-10-23T00:33:38.166Z,10.4
2022-10-23T00:35:37.846Z,10.4
2022-10-23T00:37:37.547Z,10.4
2022-10-23T00:41:36.902Z,10.3
2022-10-23T00:45:36.299Z,10.2
2022-10-23T00:53:38.456Z,10
2022-10-23T00:55:38.163Z,10
2022-10-23T00:57:37.852Z,10
2022-10-23T00:59:39.112Z,9.9
2022-10-23T01:01:42.303Z,9.9
2022-10-23T01:03:41.896Z,9.8
2022-10-23T01:05:41.611Z,9.9
2022-10-23T01:07:41.649Z,10
2022-10-23T01:09:40.957Z,10
2022-10-23T01:11:40.672Z,9.9
2022-10-23T01:13:40.361Z,9.7
2022-10-23T01:15:43.469Z,9.7
2022-10-23T01:17:44.605Z,9.7
2022-10-23T01:19:42.914Z,9.7
2022-10-23T01:22:44.301Z,9.6
2022-10-23T01:24:43.800Z,9.6
2022-10-23T01:26:43.502Z,9.6
2022-10-23T01:28:46.644Z,9.6
2022-10-23T01:30:46.352Z,9.6
2022-10-23T01:32:46.017Z,9.6
2022-10-23T01:34:45.719Z,9.6
2022-10-23T01:36:45.410Z,9.6
2022-10-23T01:38:45.157Z,9.6
2022-10-23T01:42:47.961Z,9.6
2022-10-23T01:44:47.655Z,9.7
2022-10-23T01:46:47.382Z,9.6
2022-10-23T01:50:46.774Z,9.6
2022-10-23T01:52:46.667Z,9.6
2022-10-23T01:54:46.175Z,9.7
2022-10-23T01:56:49.295Z,9.6
2022-10-23T01:58:49.003Z,9.6
2022-10-23T02:00:48.708Z,9.6
2022-10-23T02:02:48.477Z,9.6
2022-10-23T02:04:48.155Z,9.5
2022-10-23T02:06:47.935Z,9.4
2022-10-23T02:08:47.656Z,9.4
2022-10-23T02:10:50.751Z,9.4
2022-10-23T02:12:50.488Z,9.4
2022-10-23T02:14:50.188Z,9.5
2022-10-23T02:17:05.725Z,9.5
2022-10-23T02:19:05.459Z,9.4
2022-10-23T02:21:05.133Z,9.5
2022-10-23T02:23:08.254Z,9.4
2022-10-23T02:25:07.949Z,9.4
2022-10-23T02:29:07.342Z,9.4
2022-10-23T02:31:07.069Z,9.3
2022-10-23T02:33:06.779Z,9.3
2022-10-23T02:35:06.488Z,9.3
2022-10-23T02:37:09.682Z,9.3
2022-10-23T02:39:09.320Z,9.3
2022-10-23T02:41:09.001Z,9.3
2022-10-23T02:43:08.723Z,9.3
2022-10-23T02:45:08.422Z,9.2
2022-10-23T02:47:08.144Z,9.2
2022-10-23T02:49:07.840Z,9.1
2022-10-23T02:51:10.986Z,9
2022-10-23T02:53:10.651Z,9.1
2022-10-23T02:57:10.111Z,8.9
2022-10-23T02:59:09.823Z,8.9
2022-10-23T03:01:09.592Z,8.8
2022-10-23T03:03:09.255Z,9
2022-10-23T03:05:12.364Z,9
2022-10-23T03:07:12.192Z,9
2022-10-23T03:09:11.884Z,9
2022-10-23T03:10:13.433Z,9
2022-10-23T03:12:13.147Z,9
2022-10-23T03:14:12.835Z,9
2022-10-23T03:16:12.557Z,8.9
2022-10-23T03:18:15.670Z,8.9
2022-10-23T03:20:15.409Z,8.9
2022-10-23T03:22:15.174Z,8.9
2022-10-23T03:24:14.856Z,8.9
2022-10-23T03:26:14.573Z,9
2022-10-23T03:28:14.325Z,8.9
2022-10-23T03:30:14.174Z,9
2022-10-23T03:32:17.249Z,9
2022-10-23T03:34:16.988Z,9
2022-10-23T03:36:16.716Z,8.9
2022-10-23T03:38:16.519Z,8.9
2022-10-23T03:40:16.244Z,9
2022-10-23T03:42:16.052Z,9
2022-10-23T03:44:15.760Z,9
2022-10-23T03:46:18.988Z,8.9
2022-10-23T03:48:18.705Z,8.9
2022-10-23T03:50:18.444Z,8.9
2022-10-23T03:52:18.277Z,9
2022-10-23T03:54:17.976Z,8.9
2022-10-23T03:56:17.685Z,8.9
2022-10-23T03:58:17.395Z,9
2022-10-23T04:00:20.655Z,9
2022-10-23T04:02:20.411Z,9
2022-10-23T04:04:20.070Z,9.1
2022-10-23T04:07:21.365Z,9.1
2022-10-23T04:21:22.953Z,9.1
2022-10-23T04:27:25.710Z,9.1
2022-10-23T04:29:25.437Z,9
2022-10-23T04:31:25.130Z,9
2022-10-23T04:35:24.556Z,9
2022-10-23T04:37:24.284Z,9
2022-10-23T04:39:24.014Z,9
2022-10-23T04:41:27.241Z,9.1
2022-10-23T04:43:26.937Z,9
2022-10-23T04:45:26.637Z,9
2022-10-23T04:47:26.362Z,9.1
2022-10-23T04:49:26.159Z,9.1
2022-10-23T04:51:25.885Z,9.1
2022-10-23T04:53:25.591Z,9
2022-10-23T04:55:28.732Z,9
2022-10-23T04:57:28.416Z,9
2022-10-23T04:59:28.153Z,9.1
2022-10-23T05:00:29.763Z,9
2022-10-23T05:02:29.554Z,9
2022-10-23T05:04:29.357Z,9
2022-10-23T05:06:29.073Z,9
2022-10-23T05:08:32.206Z,9
2022-10-23T05:10:32.036Z,8.9
2022-10-23T05:12:31.836Z,8.9
2022-10-23T05:14:31.649Z,9
2022-10-23T05:16:31.326Z,8.9
2022-10-23T05:18:31.073Z,9
2022-10-23T05:20:30.770Z,9
2022-10-23T05:22:33.892Z,8.8
2022-10-23T05:24:33.624Z,9
2022-10-23T05:26:33.287Z,9
2022-10-23T05:28:33.001Z,9
2022-10-23T05:32:32.543Z,9
2022-10-23T05:36:35.578Z,9.1
2022-10-23T05:38:35.310Z,9
2022-10-23T05:42:37.129Z,9.3
2022-10-23T05:44:34.462Z,9.3
2022-10-23T05:46:34.185Z,9.3
2022-10-23T05:50:37.133Z,9.3
2022-10-23T05:52:36.829Z,9.4
2022-10-23T05:56:58.629Z,9.4
2022-10-23T05:58:58.334Z,9.5
2022-10-23T06:00:58.168Z,9.6
2022-10-23T06:03:01.177Z,9.6
2022-10-23T06:05:00.904Z,9.7
2022-10-23T06:07:00.615Z,9.9
2022-10-23T06:09:00.326Z,9.8
2022-10-23T06:11:00.017Z,9.7
2022-10-23T06:21:01.960Z,9.9
2022-10-23T06:23:01.657Z,9.9
2022-10-23T06:25:01.345Z,10
2022-10-23T06:27:01.058Z,10.1
2022-10-23T06:29:00.756Z,10.1
2022-10-23T06:31:03.867Z,10.2
2022-10-23T06:33:05.927Z,10.4
2022-10-23T06:37:02.978Z,10.5
2022-10-23T06:39:02.679Z,10.5
2022-10-23T06:41:02.373Z,10.4
2022-10-23T06:43:02.066Z,10.5
2022-10-23T06:45:07.411Z,10.5
2022-10-23T06:47:06.487Z,10.5
2022-10-23T06:49:06.113Z,10.5
2022-10-23T06:50:11.685Z,10.6
2022-10-23T06:52:14.229Z,10.7
2022-10-23T06:54:07.071Z,10.8
2022-10-23T06:56:06.752Z,10.9
2022-10-23T06:58:09.848Z,11
2022-10-23T07:04:08.939Z,11.3
2022-10-23T07:06:08.583Z,11.3
2022-10-23T07:10:07.996Z,11.2
2022-10-23T07:12:11.025Z,11.3
2022-10-23T07:14:10.691Z,11.4
2022-10-23T07:16:10.387Z,11.5
2022-10-23T07:18:10.063Z,11.6
2022-10-23T07:20:09.781Z,11.6
2022-10-23T07:22:11.962Z,11.7
2022-10-23T07:24:09.095Z,11.7
2022-10-23T07:26:12.203Z,11.7
2022-10-23T07:28:11.853Z,11.8
2022-10-23T07:30:11.513Z,11.9
2022-10-23T07:32:11.171Z,12
2022-10-23T07:34:10.844Z,12
2022-10-23T07:36:10.508Z,12
2022-10-23T07:38:10.163Z,12
2022-10-23T07:40:13.452Z,12.1
2022-10-23T07:42:12.899Z,12.1
2022-10-23T07:44:12.553Z,12.2
2022-10-23T07:45:14.117Z,12.2
2022-10-23T07:47:13.752Z,12.3
2022-10-23T07:49:13.408Z,12.3
2022-10-23T07:51:13.032Z,12.4
2022-10-23T07:53:16.112Z,12.5
2022-10-23T07:55:15.769Z,12.5
2022-10-23T07:57:15.433Z,12.5
2022-10-23T07:59:15.080Z,12.5
2022-10-23T08:01:14.789Z,12.5
2022-10-23T08:03:14.380Z,12.5
2022-10-23T08:05:14.045Z,12.6
2022-10-23T08:07:17.113Z,12.6
2022-10-23T08:09:16.762Z,12.7
2022-10-23T08:11:16.407Z,12.7
2022-10-23T08:13:16.059Z,12.8
2022-10-23T08:15:15.715Z,12.8
2022-10-23T08:17:15.348Z,12.8
2022-10-23T08:19:14.995Z,12.8
2022-10-23T08:21:18.042Z,12.8
2022-10-23T08:23:17.674Z,12.8
2022-10-23T08:25:19.827Z,12.8
2022-10-23T08:27:16.953Z,12.9
2022-10-23T08:29:16.565Z,12.9
2022-10-23T08:31:16.230Z,12.9
2022-10-23T08:33:15.865Z,13
2022-10-23T08:35:18.936Z,13.1
2022-10-23T08:37:18.520Z,13.1
2022-10-23T08:39:18.182Z,13.1
2022-10-23T08:42:19.311Z,13.2
2022-10-23T08:46:18.604Z,13.3
2022-10-23T08:50:21.311Z,13.4
2022-10-23T08:52:20.845Z,13.4
2022-10-23T08:54:20.484Z,13.5
2022-10-23T08:56:20.123Z,13.5
2022-10-23T08:58:19.725Z,13.6
2022-10-23T09:00:19.361Z,13.6
2022-10-23T09:02:22.534Z,13.7
2022-10-23T09:04:22.014Z,13.7
2022-10-23T09:06:21.632Z,13.8
2022-10-23T09:08:21.246Z,13.9
2022-10-23T09:10:20.995Z,13.9
2022-10-23T09:12:20.479Z,13.9
2022-10-23T09:14:20.102Z,13.9
2022-10-23T09:16:23.135Z,14.1
2022-10-23T09:18:22.683Z,14.1
2022-10-23T09:22:21.941Z,14.2
2022-10-23T09:24:21.527Z,14.2
2022-10-23T09:26:21.147Z,14.3
2022-10-23T09:32:23.338Z,14.4
2022-10-23T09:36:44.620Z,14.5
2022-10-23T09:38:44.139Z,14.6
2022-10-23T09:40:43.743Z,14.6
2022-10-23T09:42:46.743Z,14.6
2022-10-23T09:44:46.324Z,14.6
2022-10-23T09:46:45.949Z,14.6
2022-10-23T09:48:45.498Z,14.7
2022-10-23T09:50:45.084Z,14.7
2022-10-23T09:52:44.670Z,14.6
2022-10-23T09:54:44.247Z,14.6
2022-10-23T09:58:46.819Z,14.7
2022-10-23T10:00:46.430Z,14.7
2022-10-23T10:02:45.981Z,14.7
2022-10-23T10:04:45.553Z,14.6
2022-10-23T10:06:45.125Z,14.6
2022-10-23T10:10:47.682Z,14.5
2022-10-23T10:12:47.296Z,14.6
2022-10-23T10:14:46.864Z,14.5
2022-10-23T10:16:46.468Z,14.6
2022-10-23T10:18:46.063Z,14.6
2022-10-23T10:20:45.604Z,14.7
2022-10-23T10:22:46.183Z,14.8
2022-10-23T10:24:48.158Z,14.8
2022-10-23T10:26:47.749Z,14.9
2022-10-23T10:28:47.319Z,14.9
2022-10-23T10:29:48.822Z,15
2022-10-23T10:31:50.758Z,15
2022-10-23T10:33:47.952Z,15
2022-10-23T10:35:47.539Z,15.1
2022-10-23T10:37:50.710Z,15.1
2022-10-23T10:39:50.097Z,15.2
2022-10-23T10:43:49.242Z,15.4
2022-10-23T10:45:48.804Z,15.5
2022-10-23T10:47:48.391Z,15.4
2022-10-23T10:49:48.124Z,15.5
2022-10-23T10:51:50.934Z,15.5
2022-10-23T10:53:50.487Z,15.5
2022-10-23T10:55:50.040Z,15.5
2022-10-23T10:57:49.591Z,15.5
2022-10-23T10:59:49.145Z,15.5
2022-10-23T11:01:48.920Z,15.6
2022-10-23T11:03:48.249Z,15.6
2022-10-23T11:05:51.251Z,15.6
2022-10-23T11:07:50.774Z,15.7
2022-10-23T11:09:50.328Z,15.7
2022-10-23T11:11:49.857Z,15.7
2022-10-23T11:13:49.405Z,15.7
2022-10-23T11:15:48.987Z,15.6
2022-10-23T11:17:48.517Z,15.7
2022-10-23T11:19:51.459Z,15.8
2022-10-23T11:21:51.003Z,15.9
2022-10-23T11:23:50.538Z,16
2022-10-23T11:38:52.185Z,16.4
2022-10-23T11:42:51.236Z,16.4
2022-10-23T11:44:50.763Z,16.5
2022-10-23T11:46:53.710Z,16.5
2022-10-23T11:48:53.213Z,16.6
2022-10-23T11:50:52.745Z,16.7
2022-10-23T11:53:09.278Z,16.9
2022-10-23T11:54:51.790Z,16.9
2022-10-23T11:56:51.317Z,16.9
2022-10-23T11:58:50.797Z,16.9
2022-10-23T12:00:53.734Z,17.1
2022-10-23T12:06:52.299Z,17.3
2022-10-23T12:08:51.777Z,17.3
2022-10-23T12:10:51.278Z,17.4
2022-10-23T12:12:50.782Z,17.4
2022-10-23T12:14:53.706Z,17.3
2022-10-23T12:16:53.198Z,17.4
2022-10-23T12:18:52.681Z,17.4
2022-10-23T12:21:53.638Z,17.7
2022-10-23T12:23:53.117Z,18.1
2022-10-23T12:25:52.610Z,18.1
2022-10-23T12:27:57.077Z,18.3
2022-10-23T12:29:56.504Z,18.5
2022-10-23T12:31:55.982Z,18.7
2022-10-23T12:33:55.455Z,18.6
2022-10-23T12:35:54.939Z,18.8
2022-10-23T12:37:54.392Z,19.1
2022-10-23T12:39:53.882Z,19
2022-10-23T12:41:56.773Z,18.5
2022-10-23T12:43:56.221Z,18.4
2022-10-23T12:45:55.683Z,18.4
2022-10-23T12:47:55.123Z,18.4
2022-10-23T12:49:54.604Z,18.3
2022-10-23T12:51:54.031Z,18.2
2022-10-23T12:53:53.504Z,18.3
2022-10-23T12:55:56.462Z,18.1
2022-10-23T12:57:55.828Z,18
2022-10-23T13:01:54.882Z,17.8
2022-10-23T13:03:54.198Z,17.7
2022-10-23T13:05:53.601Z,17.7
2022-10-23T13:07:53.050Z,17.7
2022-10-23T13:09:55.854Z,17.9
2022-10-23T13:16:15.786Z,18.1
2022-10-23T13:22:17.442Z,18.5
2022-10-23T13:24:16.892Z,18.5
2022-10-23T13:26:16.358Z,18.6
2022-10-23T13:28:15.809Z,18.6
2022-10-23T13:32:14.570Z,18.6
2022-10-23T13:34:14.047Z,18.5
2022-10-23T13:36:16.782Z,18.5
2022-10-23T13:38:16.237Z,18.5
2022-10-23T13:40:15.602Z,18.5
2022-10-23T13:54:14.971Z,18.4
2022-10-23T13:56:14.347Z,18.6
2022-10-23T13:58:13.764Z,18.7
2022-10-23T14:00:13.211Z,18.8
2022-10-23T14:02:12.652Z,18.8
2022-10-23T14:08:14.195Z,18.8
2022-10-23T14:09:15.637Z,18.9
2022-10-23T14:13:14.508Z,18.9
2022-10-23T14:15:14.085Z,18.8
2022-10-23T14:17:16.719Z,18.7
2022-10-23T14:19:16.157Z,18.6
2022-10-23T14:21:15.590Z,18.6
2022-10-23T14:23:14.941Z,18.5
2022-10-23T14:25:14.376Z,18.4
2022-10-23T14:29:21.378Z,18.4
2022-10-23T14:31:15.887Z,18.5
2022-10-23T14:33:16.163Z,18.5
2022-10-23T14:35:15.573Z,18.6
2022-10-23T14:37:15.001Z,19
2022-10-23T14:39:14.346Z,19.4
2022-10-23T14:41:13.804Z,19.3
2022-10-23T14:43:13.239Z,19.1
2022-10-23T14:45:16.026Z,19.3
2022-10-23T14:47:15.446Z,19.3
2022-10-23T14:49:14.879Z,19.2
2022-10-23T14:51:14.214Z,18.9
2022-10-23T14:53:13.651Z,18.7
2022-10-23T14:55:13.090Z,18.6
2022-10-23T14:57:12.523Z,18.4
2022-10-23T14:59:15.426Z,18.1
2022-10-23T15:01:15.018Z,18.1
2022-10-23T15:03:14.175Z,18
2022-10-23T15:06:18.246Z,17.7
2022-10-23T15:08:14.413Z,17.7
2022-10-23T15:10:13.942Z,17.6
2022-10-23T15:12:16.591Z,17.5
2022-10-23T15:14:16.053Z,17.5
2022-10-23T15:16:15.508Z,17.4
2022-10-23T15:18:14.965Z,17.4
2022-10-23T15:20:14.408Z,17.4
2022-10-23T15:22:14.002Z,17.3
2022-10-23T15:24:13.326Z,17.3
2022-10-23T15:26:16.197Z,17.1
2022-10-23T15:28:15.692Z,17.1
2022-10-23T15:30:15.141Z,17.1
2022-10-23T15:32:14.592Z,17.1
2022-10-23T15:34:14.064Z,17
2022-10-23T15:46:14.243Z,16.8
2022-10-23T15:48:13.729Z,16.8
2022-10-23T15:52:12.687Z,16.8
2022-10-23T15:54:15.568Z,16.6
2022-10-23T15:56:15.032Z,16.7
2022-10-23T15:58:14.559Z,16.7
2022-10-23T15:59:16.003Z,16.6
2022-10-23T16:01:15.632Z,16.5
2022-10-23T16:07:17.415Z,16.3
2022-10-23T16:09:16.858Z,16.3
2022-10-23T16:13:15.888Z,16.2
2022-10-23T16:15:15.385Z,16.2
2022-10-23T16:21:17.344Z,16.2
2022-10-23T16:23:16.835Z,16.1
2022-10-23T16:25:16.333Z,16.1
2022-10-23T16:27:15.849Z,16.1
2022-10-23T16:29:15.366Z,16.2
2022-10-23T16:31:19.194Z,16.2
2022-10-23T16:33:14.401Z,16.1
2022-10-23T16:35:17.321Z,16.1
2022-10-23T16:37:16.846Z,16
2022-10-23T16:39:16.366Z,16
2022-10-23T16:41:15.884Z,16.1
2022-10-23T16:45:14.927Z,16.1
2022-10-23T16:47:14.451Z,16.2
2022-10-23T16:49:17.358Z,16.1
2022-10-23T16:51:16.856Z,16.1
2022-10-23T16:53:16.363Z,16
2022-10-23T16:55:31.361Z,16.1
2022-10-23T16:57:30.878Z,16.1
2022-10-23T16:59:30.338Z,16.1
2022-10-23T17:01:33.463Z,16
2022-10-23T17:03:32.767Z,16
2022-10-23T17:05:32.281Z,15.9
2022-10-23T17:07:31.756Z,15.9
2022-10-23T17:09:31.268Z,15.8
2022-10-23T17:11:30.750Z,15.9
2022-10-23T17:13:30.212Z,15.8
2022-10-23T17:15:33.154Z,15.7
2022-10-23T17:17:32.608Z,15.7
2022-10-23T17:19:44.543Z,15.8
2022-10-23T17:21:31.608Z,15.8
2022-10-23T17:23:31.061Z,15.8
2022-10-23T17:25:30.549Z,15.8
2022-10-23T17:27:30.040Z,15.7
2022-10-23T17:29:32.967Z,15.7
2022-10-23T17:33:31.965Z,15.8
2022-10-23T17:35:31.463Z,15.7
2022-10-23T17:37:30.950Z,15.7
2022-10-23T17:39:30.468Z,15.6
2022-10-23T17:41:29.992Z,15.5
2022-10-23T17:43:32.875Z,15.4
2022-10-23T17:45:32.382Z,15.5
2022-10-23T17:47:31.893Z,15.7
2022-10-23T17:48:33.356Z,15.8
2022-10-23T17:50:32.868Z,15.7
2022-10-23T17:56:34.809Z,15.6
2022-10-23T18:04:32.862Z,15.6
2022-10-23T18:08:31.904Z,15.5
2022-10-23T18:14:37.476Z,15.7
2022-10-23T18:16:34.922Z,15.8
2022-10-23T18:18:34.471Z,15.9
2022-10-23T18:20:33.995Z,15.8
2022-10-23T18:22:33.512Z,15.9
2022-10-23T18:24:36.433Z,15.9
2022-10-23T18:26:35.987Z,15.8
2022-10-23T18:28:35.510Z,15.9
2022-10-23T18:30:35.127Z,15.8
2022-10-23T18:32:34.585Z,15.8
2022-10-23T18:34:34.121Z,15.7
2022-10-23T18:36:34.022Z,15.9
2022-10-23T18:38:36.577Z,15.9
2022-10-23T18:40:36.125Z,15.9
2022-10-23T18:43:44.030Z,16
2022-10-23T18:45:36.656Z,16
2022-10-23T18:47:36.191Z,16.1
2022-10-23T18:49:35.719Z,16.2
2022-10-23T18:51:38.660Z,16.2
2022-10-23T18:53:38.222Z,16.3
2022-10-23T18:55:37.768Z,16.1
2022-10-23T18:57:37.253Z,16
2022-10-23T18:59:36.808Z,16
2022-10-23T19:01:36.585Z,16.2
2022-10-23T19:03:35.838Z,16.2
2022-10-23T19:05:38.797Z,16.1
2022-10-23T19:07:38.338Z,16.1
2022-10-23T19:09:37.867Z,15.9
2022-10-23T19:11:37.394Z,16.1
2022-10-23T19:13:38.917Z,16
2022-10-23T19:15:36.444Z,16
2022-10-23T19:17:35.983Z,16
2022-10-23T19:19:38.908Z,16.3
2022-10-23T19:21:38.462Z,16.2
2022-10-23T19:23:37.984Z,16.2
2022-10-23T19:25:37.490Z,16.2
2022-10-23T19:27:37.017Z,16.2
2022-10-23T19:29:36.554Z,16
2022-10-23T19:31:36.109Z,16
2022-10-23T19:37:38.259Z,16
2022-10-23T19:44:38.201Z,16.2
2022-10-23T19:46:41.135Z,16.3
2022-10-23T19:48:40.668Z,16.4
2022-10-23T19:50:40.190Z,16.5
2022-10-23T19:52:39.710Z,16.6
2022-10-23T19:54:39.223Z,16.4
2022-10-23T19:56:38.757Z,16.2
2022-10-23T19:58:38.248Z,16.2
2022-10-23T20:00:41.209Z,16.2
2022-10-23T20:02:40.720Z,16.1
2022-10-23T20:04:40.228Z,16.3
2022-10-23T20:06:39.739Z,16.3
2022-10-23T20:08:39.225Z,16.1
2022-10-23T20:10:38.774Z,16.1
2022-10-23T20:12:38.291Z,16
2022-10-23T20:14:41.236Z,15.7
2022-10-23T20:16:40.750Z,15.7
2022-10-23T20:18:40.256Z,15.8
2022-10-23T20:22:41.745Z,15.6
2022-10-23T20:24:38.825Z,15.7
2022-10-23T20:26:38.385Z,15.7
2022-10-23T20:28:41.336Z,15.6
2022-10-23T20:30:40.853Z,15.6
2022-10-23T20:32:40.397Z,15.6
2022-10-23T20:35:01.408Z,15.6
2022-10-23T20:37:00.964Z,15.6
2022-10-23T20:39:00.531Z,15.6
2022-10-23T20:41:03.431Z,15.4
2022-10-23T20:43:02.993Z,15.5
2022-10-23T20:45:03.723Z,15.3
2022-10-23T20:47:02.051Z,15.3
2022-10-23T20:49:01.605Z,15.5
2022-10-23T20:51:01.176Z,15.4
2022-10-23T20:53:00.669Z,15.4
2022-10-23T20:55:03.621Z,15.4
2022-10-23T20:57:03.178Z,15.4
2022-10-23T20:59:02.734Z,15.4
2022-10-23T21:01:02.341Z,15.3
2022-10-23T21:03:01.802Z,15.3
2022-10-23T21:05:01.393Z,15.4
2022-10-23T21:07:11.298Z,15.4
2022-10-23T21:09:03.915Z,15.3
2022-10-23T21:11:03.430Z,15.4
2022-10-23T21:13:02.970Z,15.3
2022-10-23T21:15:02.550Z,15.4
2022-10-23T21:17:02.112Z,15.5
2022-10-23T21:19:01.630Z,15.3
2022-10-23T21:21:01.182Z,15.3
2022-10-23T21:23:04.150Z,15.4
2022-10-23T21:25:03.728Z,15.4
2022-10-23T21:27:03.259Z,15.2
2022-10-23T21:32:03.845Z,15.2
2022-10-23T21:34:03.464Z,15.3
2022-10-23T21:36:13.671Z,15.2
2022-10-23T21:38:05.959Z,15.2
2022-10-23T21:40:05.512Z,15.3
2022-10-23T21:42:05.072Z,15.4
2022-10-23T21:44:04.645Z,15.5
2022-10-23T21:46:04.205Z,15.5
2022-10-23T21:48:03.755Z,15.6
2022-10-23T21:50:06.724Z,15.6
2022-10-23T21:52:06.297Z,15.6
2022-10-23T21:54:05.825Z,15.5
2022-10-23T21:56:05.413Z,15.4
2022-10-23T21:58:04.962Z,15.4
2022-10-23T22:00:04.549Z,15.4
2022-10-23T22:02:04.199Z,15.4
2022-10-23T22:04:07.062Z,15.2
2022-10-23T22:06:06.602Z,15.2
2022-10-23T22:08:06.128Z,14.9
2022-10-23T22:10:05.712Z,14.7
2022-10-23T22:12:05.268Z,14.6
2022-10-23T22:14:04.811Z,14.6
2022-10-23T22:16:04.349Z,14.6
2022-10-23T22:18:07.329Z,14.6
2022-10-23T22:20:06.887Z,14.6
2022-10-23T22:22:06.431Z,14.6
2022-10-23T22:25:07.456Z,14.7
2022-10-23T22:27:07.037Z,14.9
2022-10-23T22:29:06.564Z,15
2022-10-23T22:33:09.109Z,15.2
2022-10-23T22:35:08.685Z,15.2
2022-10-23T22:37:08.258Z,15.4
2022-10-23T22:39:07.821Z,15.4
2022-10-23T22:41:07.354Z,15.6
2022-10-23T22:43:06.919Z,15.7
2022-10-23T22:47:09.429Z,15.5
2022-10-23T22:49:09.075Z,15.5
2022-10-23T22:55:22.809Z,15.2
2022-10-23T22:57:07.206Z,15.1
2022-10-23T22:59:10.173Z,15
2022-10-23T23:01:09.849Z,15
2022-10-23T23:03:09.363Z,15
2022-10-23T23:05:08.880Z,14.9
2022-10-23T23:07:08.427Z,15
2022-10-23T23:09:07.998Z,15.1
2022-10-23T23:11:07.533Z,14.9
2022-10-23T23:13:10.505Z,14.9
2022-10-23T23:18:11.277Z,15
2022-10-23T23:22:10.315Z,15
2022-10-23T23:24:09.867Z,14.9
2022-10-23T23:26:12.799Z,14.9
2022-10-23T23:28:12.402Z,14.9
2022-10-23T23:30:11.958Z,14.9
2022-10-23T23:32:11.509Z,14.8
2022-10-23T23:34:11.059Z,14.7
2022-10-23T23:36:10.733Z,14.7
2022-10-23T23:38:10.197Z,14.6
2022-10-23T23:40:13.173Z,14.5
2022-10-23T23:42:12.738Z,14.5
2022-10-23T23:44:12.289Z,14.5
2022-10-23T23:46:11.867Z,14.5
2022-10-23T23:48:11.435Z,14.3
2022-10-23T23:52:10.578Z,14.3
2022-10-23T23:54:13.544Z,14.4
2022-10-23T23:56:13.116Z,14.3
